Time;durP1;ratioP1;P1;durP2;ratioP2;P2;SDS_P1;SDS_P2;PMS_P1;PMS_P2;Temp;Humidity;BMP_temperature;BMP_pressure;BME280_temperature;BME280_humidity;BME280_pressure;Samples;Min_cycle;Max_cycle;Signal;HPM_P1;HPM_P2
2021/06/03 00:00:57;;;;;;;9.43;3.63;;;;;;;16.42;69.61;100955.16;5095343;28;20039;-78
2021/06/03 00:03:24;;;;;;;8.35;3.90;;;;;;;16.38;70.26;100958.81;5092089;28;20035;-80
2021/06/03 00:05:52;;;;;;;6.45;3.45;;;;;;;16.42;69.91;100944.69;5095690;28;20031;-79
2021/06/03 00:08:19;;;;;;;7.22;3.30;;;;;;;16.43;69.84;100958.63;5113567;28;20031;-79
2021/06/03 00:10:50;;;;;;;8.30;3.42;;;;;;;16.42;69.47;100957.78;5095177;28;20387;-78
2021/06/03 00:13:16;;;;;;;7.35;3.38;;;;;;;16.45;69.29;100954.19;5113889;28;20391;-78
2021/06/03 00:15:41;;;;;;;7.93;3.33;;;;;;;16.37;69.96;100958.84;5113680;28;20020;-78
2021/06/03 00:18:07;;;;;;;7.22;3.53;;;;;;;16.33;70.25;100968.59;5095478;28;20098;-79
2021/06/03 00:20:33;;;;;;;5.88;3.42;;;;;;;16.25;70.49;100955.75;5095198;28;20046;-78
2021/06/03 00:22:59;;;;;;;6.57;3.42;;;;;;;16.23;70.51;100959.34;5095392;28;20110;-78
2021/06/03 00:25:26;;;;;;;7.30;3.80;;;;;;;16.20;70.39;100962.94;5095641;28;20055;-78
2021/06/03 00:27:52;;;;;;;9.73;3.80;;;;;;;16.18;70.70;100951.66;5114044;28;20020;-78
2021/06/03 00:30:18;;;;;;;5.85;3.35;;;;;;;16.12;71.10;100964.94;5116327;28;20023;-78
2021/06/03 00:32:44;;;;;;;9.15;3.60;;;;;;;16.14;70.65;100957.06;5117420;28;20024;-78
2021/06/03 00:35:10;;;;;;;7.05;3.20;;;;;;;16.08;71.05;100971.19;5099048;28;20432;-78
2021/06/03 00:37:35;;;;;;;8.15;3.28;;;;;;;16.04;71.52;100956.50;5099106;28;20019;-78
2021/06/03 00:40:03;;;;;;;5.97;3.45;;;;;;;16.00;71.76;100957.53;5099323;28;20057;-78
2021/06/03 00:42:29;;;;;;;7.43;3.50;;;;;;;15.95;71.43;100956.81;5098898;28;20023;-78
2021/06/03 00:44:54;;;;;;;7.32;3.67;;;;;;;15.89;71.94;100952.66;5117390;28;20394;-78
2021/06/03 00:47:20;;;;;;;7.40;3.88;;;;;;;15.87;72.33;100950.09;5098718;28;20023;-78
2021/06/03 00:49:45;;;;;;;5.55;3.40;;;;;;;15.90;71.93;100949.13;5117942;28;20032;-78
2021/06/03 00:52:10;;;;;;;8.35;3.75;;;;;;;15.83;72.01;100948.50;5117454;28;20023;-78
2021/06/03 00:54:36;;;;;;;7.63;3.72;;;;;;;15.79;72.49;100939.03;5098857;28;20475;-79
2021/06/03 00:57:01;;;;;;;6.82;3.50;;;;;;;15.73;72.59;100943.59;5098992;28;20019;-79
2021/06/03 00:59:27;;;;;;;6.45;3.53;;;;;;;15.64;73.19;100950.84;5098597;28;20020;-79
2021/06/03 01:05:20;;;;;;;7.25;3.58;;;;;;;15.57;73.73;100940.63;5117369;28;20038;-79
2021/06/03 01:07:46;;;;;;;7.15;3.90;;;;;;;15.56;73.54;100945.00;5098450;28;20023;-78
2021/06/03 01:10:18;;;;;;;6.10;3.50;;;;;;;15.48;74.45;100943.53;5098809;28;20026;-79
2021/06/03 01:13:31;;;;;;;7.35;3.70;;;;;;;15.47;74.45;100942.69;5117126;28;20031;-79
2021/06/03 01:15:57;;;;;;;6.22;3.78;;;;;;;15.41;74.70;100943.72;5022635;28;20038;-78
2021/06/03 01:18:23;;;;;;;9.55;4.13;;;;;;;15.35;75.01;100943.91;5098381;28;20020;-78
2021/06/03 01:20:49;;;;;;;5.97;3.42;;;;;;;15.24;75.92;100946.03;5098274;28;20032;-78
2021/06/03 01:24:06;;;;;;;9.48;3.75;;;;;;;15.17;76.23;100954.94;5116496;28;20032;-78
2021/06/03 01:26:31;;;;;;;6.65;3.70;;;;;;;15.15;76.57;100947.19;5056114;28;20111;-78
2021/06/03 01:28:57;;;;;;;9.32;3.60;;;;;;;15.11;77.03;100949.91;5098370;28;20062;-78
2021/06/03 01:31:23;;;;;;;6.40;3.60;;;;;;;15.07;77.15;100950.91;5098590;28;20059;-79
2021/06/03 01:33:48;;;;;;;9.10;3.95;;;;;;;15.00;77.65;100946.78;5115992;28;20023;-79
2021/06/03 01:36:16;;;;;;;6.30;3.80;;;;;;;14.92;78.16;100950.47;5116063;28;20365;-79
2021/06/03 01:38:42;;;;;;;9.07;4.18;;;;;;;14.94;78.18;100940.84;5097768;28;20024;-78
2021/06/03 01:41:10;;;;;;;8.98;3.85;;;;;;;14.99;77.60;100943.28;5114632;28;20028;-79
2021/06/03 01:43:37;;;;;;;7.18;3.95;;;;;;;14.93;78.24;100948.72;5097263;28;20092;-78
2021/06/03 01:46:04;;;;;;;6.35;3.70;;;;;;;14.82;78.55;100950.81;5097140;28;20023;-79
2021/06/03 01:48:30;;;;;;;6.47;3.58;;;;;;;14.74;79.41;100949.25;5097045;28;20019;-78
2021/06/03 01:50:58;;;;;;;7.13;3.67;;;;;;;14.81;78.78;100949.06;5115469;28;20065;-78
2021/06/03 01:53:26;;;;;;;10.13;4.00;;;;;;;14.79;78.71;100951.75;5115623;28;20072;-78
2021/06/03 01:55:53;;;;;;;6.75;3.83;;;;;;;14.71;79.30;100951.09;5097349;28;20031;-78
2021/06/03 01:58:20;;;;;;;6.93;3.95;;;;;;;14.64;79.83;100947.81;5115572;28;20024;-78
2021/06/03 02:00:46;;;;;;;6.53;3.75;;;;;;;14.57;80.21;100942.84;5097293;28;20019;-78
2021/06/03 02:03:12;;;;;;;8.07;4.00;;;;;;;14.59;79.93;100943.63;5097939;28;20054;-79
2021/06/03 02:05:37;;;;;;;8.13;4.15;;;;;;;14.55;80.30;100942.84;5097658;28;20464;-79
2021/06/03 02:08:03;;;;;;;8.77;4.07;;;;;;;14.48;80.64;100946.53;5097467;28;20429;-79
2021/06/03 02:10:28;;;;;;;8.25;4.15;;;;;;;14.40;81.23;100954.53;5115657;28;20087;-79
2021/06/03 02:13:15;;;;;;;9.27;3.95;;;;;;;14.44;80.99;100945.75;5122324;27;20016;-79
2021/06/03 02:15:49;;;;;;;7.88;3.63;;;;;;;14.28;81.75;100955.75;5129975;28;20028;-79
2021/06/03 02:18:16;;;;;;;8.35;4.03;;;;;;;14.24;82.32;100958.47;5097838;28;20027;-78
2021/06/03 02:20:44;;;;;;;14.43;4.50;;;;;;;14.29;82.00;100951.41;5115592;28;20023;-78
2021/06/03 02:23:11;;;;;;;15.98;4.30;;;;;;;14.24;82.36;100959.34;5096978;28;20475;-78
2021/06/03 02:25:37;;;;;;;6.80;4.18;;;;;;;14.20;82.43;100954.25;5096563;28;20028;-78
2021/06/03 02:28:04;;;;;;;8.02;4.15;;;;;;;14.25;82.05;100957.56;5096531;28;20026;-78
2021/06/03 02:30:31;;;;;;;7.65;4.07;;;;;;;14.20;82.04;100959.47;5114635;28;20081;-78
2021/06/03 02:32:59;;;;;;;7.03;4.28;;;;;;;14.15;82.52;100956.97;5096392;28;20016;-78
2021/06/03 02:35:25;;;;;;;7.47;4.13;;;;;;;14.15;82.73;100950.91;5097333;28;20085;-78
2021/06/03 02:37:50;;;;;;;6.90;4.32;;;;;;;14.13;82.87;100948.34;5096301;28;20437;-78
2021/06/03 02:40:25;;;;;;;7.47;4.30;;;;;;;14.07;83.51;100952.84;5096018;28;20540;-78
2021/06/03 02:42:51;;;;;;;9.80;4.00;;;;;;;14.13;82.88;100956.19;5096928;28;20015;-78
2021/06/03 02:45:23;;;;;;;8.20;4.07;;;;;;;14.15;82.35;100958.72;5114543;28;20027;-78
2021/06/03 02:47:49;;;;;;;8.88;4.07;;;;;;;14.17;82.32;100956.94;5114330;28;20394;-78
2021/06/03 02:50:16;;;;;;;8.52;4.00;;;;;;;14.17;82.23;100954.34;5096254;28;20024;-78
2021/06/03 02:52:42;;;;;;;9.85;4.40;;;;;;;14.11;82.93;100957.97;5114477;28;20453;-78
2021/06/03 02:55:11;;;;;;;9.82;3.83;;;;;;;14.13;82.62;100956.19;5096128;28;20027;-78
2021/06/03 02:57:37;;;;;;;6.75;4.40;;;;;;;14.12;82.56;100957.06;5114600;28;20072;-78
2021/06/03 03:00:25;;;;;;;8.13;4.28;;;;;;;14.12;82.29;100961.41;5096089;28;20027;-78
2021/06/03 03:02:51;;;;;;;8.25;4.53;;;;;;;14.06;82.84;100965.03;5113469;28;20088;-78
2021/06/03 03:05:16;;;;;;;7.82;3.95;;;;;;;14.04;83.00;100965.09;5114111;28;20368;-78
2021/06/03 03:07:41;;;;;;;6.95;3.90;;;;;;;13.98;83.13;100965.25;5114221;28;20016;-78
2021/06/03 03:10:11;;;;;;;8.20;4.35;;;;;;;13.98;83.51;100962.66;5096140;28;20391;-78
2021/06/03 03:12:37;;;;;;;7.35;4.15;;;;;;;14.03;83.08;100962.50;5095674;28;20051;-78
2021/06/03 03:15:07;;;;;;;9.20;4.07;;;;;;;13.99;83.22;100968.72;5095478;28;20123;-78
2021/06/03 03:17:33;;;;;;;6.20;3.88;;;;;;;14.04;82.92;100965.09;5096074;28;20024;-78
2021/06/03 03:19:59;;;;;;;9.20;3.80;;;;;;;14.01;83.26;100966.94;5095604;28;20079;-78
2021/06/03 03:22:24;;;;;;;7.68;4.10;;;;;;;14.03;83.16;100963.34;5095574;28;20028;-78
2021/06/03 03:24:50;;;;;;;6.75;3.75;;;;;;;14.05;83.05;100969.41;5095685;28;20023;-79
2021/06/03 03:27:15;;;;;;;8.88;3.78;;;;;;;14.02;83.06;100969.47;5096105;28;20399;-79
2021/06/03 03:29:41;;;;;;;7.65;4.07;;;;;;;14.02;83.24;100969.47;5095476;28;20114;-79
2021/06/03 03:32:07;;;;;;;7.72;3.80;;;;;;;14.07;83.12;100974.59;5095403;28;20015;-79
2021/06/03 03:34:32;;;;;;;7.35;3.88;;;;;;;14.04;83.38;100972.06;5095618;28;20105;-78
2021/06/03 03:36:57;;;;;;;8.60;4.30;;;;;;;14.04;83.24;100982.50;5095803;28;20047;-78
2021/06/03 03:39:23;;;;;;;7.35;4.10;;;;;;;14.06;83.40;100980.69;5095933;28;20020;-78
2021/06/03 03:41:48;;;;;;;7.03;3.88;;;;;;;14.05;83.38;100976.38;5095307;28;20429;-78
2021/06/03 03:44:13;;;;;;;9.90;4.20;;;;;;;14.10;83.38;100971.03;5095430;28;20464;-78
2021/06/03 03:46:39;;;;;;;8.57;3.80;;;;;;;14.16;82.61;100974.34;5095740;28;20031;-79
2021/06/03 03:49:04;;;;;;;5.97;3.63;;;;;;;14.18;82.48;100969.09;5095614;28;20074;-78
2021/06/03 03:51:29;;;;;;;6.32;3.50;;;;;;;14.16;82.58;100974.34;5113687;28;20395;-78
2021/06/03 03:53:54;;;;;;;6.32;3.45;;;;;;;14.17;83.04;100975.22;5095681;28;20027;-78
2021/06/03 03:56:20;;;;;;;9.15;4.25;;;;;;;14.18;82.82;100974.31;5113834;28;20112;-78
2021/06/03 03:58:48;;;;;;;7.15;4.25;;;;;;;14.22;82.73;100978.53;5114028;28;20057;-78
2021/06/03 04:01:14;;;;;;;8.15;4.45;;;;;;;14.17;82.99;100968.22;5095668;28;20064;-78
2021/06/03 04:03:40;;;;;;;7.05;3.95;;;;;;;14.20;82.57;100973.38;5114118;28;20052;-78
2021/06/03 04:06:06;;;;;;;8.15;4.57;;;;;;;14.15;83.58;100977.84;5099276;28;20015;-78
2021/06/03 04:08:31;;;;;;;9.43;4.25;;;;;;;14.19;83.11;100981.22;5099295;28;20019;-78
2021/06/03 04:10:56;;;;;;;6.60;3.78;;;;;;;14.11;83.52;100984.03;5099359;28;20019;-79
2021/06/03 04:13:22;;;;;;;6.35;3.75;;;;;;;14.11;84.07;100983.19;5117751;28;20433;-78
2021/06/03 04:15:47;;;;;;;8.73;4.40;;;;;;;14.08;84.31;100991.09;5099072;28;20020;-78
2021/06/03 04:18:12;;;;;;;7.50;3.60;;;;;;;14.04;84.59;100985.97;5117172;28;20019;-78
2021/06/03 04:20:38;;;;;;;6.47;3.88;;;;;;;14.03;84.98;100988.59;5098980;28;20141;-78
2021/06/03 04:23:03;;;;;;;10.63;3.92;;;;;;;14.04;84.84;100985.09;5098856;28;20019;-78
2021/06/03 04:25:29;;;;;;;8.10;4.32;;;;;;;14.07;84.74;100978.94;5099651;28;20026;-78
2021/06/03 04:27:55;;;;;;;6.60;3.97;;;;;;;14.12;84.33;100982.28;5117086;28;20029;-78
2021/06/03 04:30:23;;;;;;;8.45;4.00;;;;;;;14.12;84.23;100988.34;5116935;28;20024;-78
2021/06/03 04:32:49;;;;;;;8.27;4.05;;;;;;;14.16;83.69;100981.31;5098881;28;20050;-78
2021/06/03 04:35:17;;;;;;;10.23;4.40;;;;;;;14.27;83.61;100992.31;5098804;28;20026;-78
2021/06/03 04:37:44;;;;;;;10.40;4.30;;;;;;;14.29;83.85;100995.75;5140626;27;20027;-78
2021/06/03 04:40:11;;;;;;;7.43;4.28;;;;;;;14.35;83.73;100986.91;5118815;28;20500;-79
2021/06/03 04:42:37;;;;;;;11.02;4.38;;;;;;;14.41;83.87;100982.38;5119076;28;20466;-78
2021/06/03 04:45:05;;;;;;;10.02;4.55;;;;;;;14.47;83.10;100990.03;5118696;28;20047;-78
2021/06/03 04:47:30;;;;;;;9.15;4.20;;;;;;;14.66;82.42;100987.81;5117908;28;20019;-79
2021/06/03 04:49:56;;;;;;;8.75;3.78;;;;;;;14.74;81.74;100990.19;5099273;28;20030;-78
2021/06/03 04:52:31;;;;;;;7.97;4.22;;;;;;;14.77;81.80;100991.84;5116901;28;20023;-78
2021/06/03 04:54:59;;;;;;;8.32;4.10;;;;;;;14.92;81.07;100997.47;5098162;28;20026;-78
2021/06/03 04:57:26;;;;;;;7.15;4.30;;;;;;;15.07;79.60;100990.09;5098076;28;20027;-78
2021/06/03 04:59:51;;;;;;;6.82;4.22;;;;;;;15.39;78.29;100987.38;5097999;28;20449;-79
2021/06/03 05:02:17;;;;;;;8.70;4.28;;;;;;;15.60;76.91;100992.81;5116355;28;20019;-78
2021/06/03 05:04:43;;;;;;;10.27;4.55;;;;;;;15.81;76.20;100994.75;5098692;28;20023;-78
2021/06/03 05:07:10;;;;;;;9.52;3.97;;;;;;;16.17;74.44;100997.06;5098237;28;20020;-78
2021/06/03 05:09:37;;;;;;;8.77;4.57;;;;;;;15.94;74.79;100999.59;5098068;28;20031;-78
2021/06/03 05:12:02;;;;;;;9.13;4.13;;;;;;;15.91;75.60;100995.31;5116466;28;20112;-79
2021/06/03 05:14:28;;;;;;;7.90;4.00;;;;;;;15.81;75.49;101004.38;5116657;28;20016;-78
2021/06/03 05:16:53;;;;;;;7.20;4.03;;;;;;;15.86;75.88;100995.47;5097469;28;20019;-78
2021/06/03 05:19:18;;;;;;;12.68;4.15;;;;;;;15.95;75.61;100996.94;5098436;28;20027;-78
2021/06/03 05:21:43;;;;;;;8.13;4.15;;;;;;;15.88;75.79;101009.34;5116940;28;20027;-79
2021/06/03 05:24:09;;;;;;;8.38;4.35;;;;;;;15.77;77.25;101001.00;5099048;28;20055;-79
2021/06/03 05:26:34;;;;;;;9.02;3.95;;;;;;;15.76;77.02;101004.50;5099483;28;20044;-79
2021/06/03 05:28:59;;;;;;;7.78;4.40;;;;;;;15.82;76.80;101000.84;5118962;28;20084;-81
2021/06/03 05:31:24;;;;;;;7.88;4.80;;;;;;;15.82;76.66;100998.22;5119388;28;20038;-80
2021/06/03 05:33:50;;;;;;;9.93;4.13;;;;;;;15.86;77.19;100995.47;5117331;28;20023;-79
2021/06/03 05:36:15;;;;;;;8.02;4.40;;;;;;;15.88;77.05;100996.25;5117029;28;20077;-79
2021/06/03 05:38:40;;;;;;;8.65;4.82;;;;;;;15.85;77.46;101001.59;5116839;28;20464;-79
2021/06/03 05:41:06;;;;;;;8.70;4.25;;;;;;;15.84;77.79;101005.13;5098040;28;20068;-79
2021/06/03 05:43:31;;;;;;;13.25;4.43;;;;;;;15.97;78.48;100999.47;5098245;28;20384;-79
2021/06/03 05:45:56;;;;;;;9.50;4.82;;;;;;;16.05;77.86;101007.94;5116894;28;20019;-78
2021/06/03 05:48:21;;;;;;;8.35;4.22;;;;;;;16.33;76.80;101005.22;5098259;28;20055;-79
2021/06/03 05:50:47;;;;;;;7.85;4.63;;;;;;;16.33;76.58;101007.84;5115942;28;20019;-79
2021/06/03 05:53:12;;;;;;;8.55;4.07;;;;;;;16.24;76.89;101009.00;5098217;28;20032;-78
2021/06/03 05:55:37;;;;;;;8.43;4.63;;;;;;;16.22;77.69;101002.97;5116851;28;20098;-79
2021/06/03 05:58:03;;;;;;;11.45;3.95;;;;;;;16.28;76.83;101004.53;5118313;28;20473;-79
2021/06/03 06:00:29;;;;;;;7.53;4.07;;;;;;;16.24;77.71;101000.31;5117346;28;20445;-80
2021/06/03 06:02:57;;;;;;;7.47;4.38;;;;;;;16.19;76.79;100997.84;5099561;28;20441;-79
2021/06/03 06:08:10;;;;;;;8.82;4.55;;;;;;;16.14;77.26;101018.09;5115514;28;20030;-79
2021/06/03 06:10:36;;;;;;;7.38;3.92;;;;;;;16.15;76.69;101019.78;5115052;28;20058;-78
2021/06/03 06:13:02;;;;;;;10.45;4.07;;;;;;;16.15;77.46;101022.41;5096948;28;20012;-79
2021/06/03 06:15:28;;;;;;;7.13;4.43;;;;;;;16.30;76.99;101023.66;5115164;28;20019;-78
2021/06/03 06:17:54;;;;;;;17.50;4.32;;;;;;;16.47;76.32;101025.69;5115266;28;20102;-78
2021/06/03 06:20:19;;;;;;;10.60;3.78;;;;;;;16.84;75.14;101017.41;5114807;28;20065;-79
2021/06/03 06:22:45;;;;;;;8.75;4.30;;;;;;;17.13;73.88;101024.16;5096408;28;20118;-78
2021/06/03 06:25:11;;;;;;;12.00;4.57;;;;;;;17.38;73.31;101028.47;5115118;28;20027;-78
2021/06/03 06:27:37;;;;;;;8.00;3.95;;;;;;;17.37;72.15;101032.88;5114941;28;20019;-78
2021/06/03 06:30:08;;;;;;;8.65;4.20;;;;;;;17.42;72.54;101032.66;5096782;28;20026;-78
2021/06/03 06:32:33;;;;;;;9.57;4.10;;;;;;;17.68;70.43;101027.25;5114964;28;20414;-78
2021/06/03 06:34:58;;;;;;;7.93;4.10;;;;;;;17.90;69.37;101022.00;5114960;28;20084;-78
2021/06/03 06:37:23;;;;;;;10.45;3.83;;;;;;;17.75;70.12;101033.09;5115585;28;20483;-79
2021/06/03 06:39:49;;;;;;;7.25;4.07;;;;;;;18.05;69.45;101036.28;5114746;28;20031;-79
2021/06/03 06:42:14;;;;;;;8.73;3.75;;;;;;;18.07;68.08;101039.69;5114910;28;20028;-79
2021/06/03 06:44:39;;;;;;;9.93;3.97;;;;;;;18.25;68.94;101045.06;5096733;28;20479;-79
2021/06/03 06:47:05;;;;;;;9.82;3.78;;;;;;;19.04;65.27;101043.38;5097062;28;20479;-78
2021/06/03 06:49:30;;;;;;;11.43;4.25;;;;;;;18.80;66.03;101050.59;5114824;28;20024;-79
2021/06/03 06:51:55;;;;;;;9.02;3.50;;;;;;;19.49;63.64;101040.38;5114739;28;20060;-79
2021/06/03 06:54:21;;;;;;;10.05;4.75;;;;;;;19.61;62.65;101038.97;5096155;28;20012;-79
2021/06/03 06:56:46;;;;;;;11.32;4.85;;;;;;;19.45;63.00;101054.59;5115019;28;20484;-79
2021/06/03 06:59:12;;;;;;;13.38;5.93;;;;;;;19.84;61.99;101045.75;5114581;28;20027;-79
2021/06/03 07:01:37;;;;;;;10.18;4.72;;;;;;;19.91;62.15;101049.78;5111142;28;20073;-79
2021/06/03 07:04:02;;;;;;;11.50;5.25;;;;;;;20.25;60.26;101050.72;5139101;27;20115;-79
2021/06/03 07:06:28;;;;;;;8.20;4.72;;;;;;;20.08;59.73;101045.47;5116809;28;20032;-79
2021/06/03 07:08:53;;;;;;;10.23;4.80;;;;;;;20.20;59.52;101045.72;5097633;28;20131;-79
2021/06/03 07:11:18;;;;;;;13.95;5.25;;;;;;;20.81;59.50;101041.72;5115508;28;20489;-79
2021/06/03 07:13:44;;;;;;;10.60;4.97;;;;;;;20.86;58.03;101049.34;5113932;28;20042;-79
2021/06/03 07:16:09;;;;;;;8.60;3.80;;;;;;;20.66;57.29;101046.00;5113898;28;20030;-77
2021/06/03 07:18:34;;;;;;;8.40;4.23;;;;;;;20.41;58.51;101051.66;5095808;28;20027;-78
2021/06/03 07:21:00;;;;;;;12.20;4.07;;;;;;;20.79;59.10;101046.19;5113699;28;20760;-78
2021/06/03 07:23:25;;;;;;;8.95;5.30;;;;;;;21.38;58.15;101050.03;5113645;28;20103;-78
2021/06/03 07:25:55;;;;;;;11.00;4.38;;;;;;;21.63;56.29;101053.94;5113909;28;20024;-78
2021/06/03 07:28:21;;;;;;;11.35;4.35;;;;;;;22.16;53.72;101052.66;5095311;28;20024;-78
2021/06/03 07:30:46;;;;;;;10.38;5.88;;;;;;;21.43;54.76;101052.44;5095302;28;20031;-78
2021/06/03 07:33:12;;;;;;;11.68;3.65;;;;;;;21.36;56.32;101043.97;5095266;28;20395;-78
2021/06/03 07:35:37;;;;;;;8.27;4.05;;;;;;;20.80;57.14;101058.44;5114041;28;20028;-78
2021/06/03 07:38:04;;;;;;;10.68;4.75;;;;;;;20.97;56.11;101049.66;5095513;28;20110;-78
2021/06/03 07:40:32;;;;;;;7.85;4.63;;;;;;;21.57;54.38;101054.28;5098815;28;20165;-79
2021/06/03 07:42:57;;;;;;;22.25;9.57;;;;;;;20.57;58.42;101051.75;5117623;28;20148;-78
2021/06/03 07:45:25;;;;;;;23.75;12.05;;;;;;;21.30;56.28;101046.09;5118133;28;20020;-78
2021/06/03 07:47:52;;;;;;;15.18;6.30;;;;;;;21.83;55.70;101050.19;5117846;28;20153;-78
2021/06/03 07:50:19;;;;;;;18.27;8.88;;;;;;;22.52;53.72;101054.91;5117778;28;20035;-78
2021/06/03 07:52:44;;;;;;;14.13;7.57;;;;;;;21.84;54.49;101044.81;5117850;28;20028;-79
2021/06/03 07:55:14;;;;;;;15.68;7.95;;;;;;;22.21;53.62;101040.03;5117718;28;20028;-78
2021/06/03 07:57:41;;;;;;;16.02;7.28;;;;;;;22.08;54.84;101043.47;5117712;28;20028;-78
2021/06/03 08:00:12;;;;;;;13.45;4.20;;;;;;;22.82;52.54;101043.41;5117613;28;20023;-78
2021/06/03 08:02:38;;;;;;;11.13;5.00;;;;;;;22.94;52.28;101047.13;5099422;28;20019;-78
2021/06/03 08:05:04;;;;;;;13.23;7.45;;;;;;;22.90;52.68;101046.41;5117368;28;20108;-78
2021/06/03 08:07:30;;;;;;;10.05;5.47;;;;;;;22.37;53.14;101039.13;5098935;28;20020;-78
2021/06/03 08:09:56;;;;;;;7.63;3.10;;;;;;;21.69;53.92;101029.84;5117203;28;20106;-79
2021/06/03 08:12:22;;;;;;;8.80;4.00;;;;;;;21.69;55.75;101042.19;5117424;28;20043;-79
2021/06/03 08:14:47;;;;;;;11.18;6.35;;;;;;;21.80;55.81;101042.44;5117313;28;20022;-78
2021/06/03 08:17:13;;;;;;;12.48;6.20;;;;;;;22.08;54.48;101033.75;5098859;28;20066;-78
2021/06/03 08:19:38;;;;;;;8.52;4.07;;;;;;;21.66;54.77;101024.72;5116874;28;20571;-78
2021/06/03 08:22:04;;;;;;;6.93;3.47;;;;;;;21.52;55.46;101040.50;5116961;28;20387;-78
2021/06/03 08:24:29;;;;;;;9.88;3.72;;;;;;;21.24;56.37;101036.72;5116861;28;20433;-78
2021/06/03 08:26:54;;;;;;;8.88;4.32;;;;;;;21.26;57.44;101053.31;5116942;28;20035;-78
2021/06/03 08:29:20;;;;;;;9.10;3.70;;;;;;;21.51;56.26;101049.34;5117211;28;20402;-77
2021/06/03 08:31:48;;;;;;;20.17;3.90;;;;;;;21.66;55.50;101045.84;5098527;28;20265;-78
2021/06/03 08:34:13;;;;;;;11.35;4.18;;;;;;;21.80;55.23;101048.56;5116935;28;20019;-77
2021/06/03 08:36:39;;;;;;;9.85;3.95;;;;;;;22.13;54.67;101058.09;5116938;28;20054;-77
2021/06/03 08:39:06;;;;;;;8.65;3.80;;;;;;;21.91;54.20;101037.38;5098381;28;20028;-78
2021/06/03 08:41:35;;;;;;;10.13;3.33;;;;;;;22.34;53.48;101039.31;5116348;28;20027;-78
2021/06/03 08:44:05;;;;;;;9.43;3.50;;;;;;;21.64;55.51;101036.31;5098231;28;20012;-77
2021/06/03 08:46:30;;;;;;;10.70;5.10;;;;;;;22.12;53.49;101043.19;5116512;28;20088;-77
2021/06/03 08:48:56;;;;;;;13.48;4.25;;;;;;;22.15;53.00;101039.53;5116326;28;20023;-77
2021/06/03 08:51:21;;;;;;;10.13;4.85;;;;;;;22.67;52.50;101045.22;5115644;28;20052;-77
2021/06/03 08:53:49;;;;;;;8.82;3.60;;;;;;;21.73;54.73;101036.63;5097658;28;20114;-77
2021/06/03 08:56:15;;;;;;;13.23;4.53;;;;;;;22.03;56.15;101033.16;5116009;28;20024;-77
2021/06/03 08:58:45;;;;;;;11.55;3.63;;;;;;;21.90;55.41;101042.75;5115919;28;20088;-77
2021/06/03 09:01:12;;;;;;;8.45;3.47;;;;;;;21.92;54.46;101038.22;5116034;28;20019;-78
2021/06/03 09:03:38;;;;;;;7.50;3.63;;;;;;;21.73;53.80;101033.16;5115846;28;20020;-78
2021/06/03 09:06:04;;;;;;;10.50;3.33;;;;;;;21.94;53.48;101039.84;5115723;28;20391;-78
2021/06/03 09:08:38;;;;;;;11.52;4.13;;;;;;;22.43;53.04;101050.19;5097427;28;20016;-78
2021/06/03 09:11:10;;;;;;;10.15;3.35;;;;;;;21.98;51.76;101049.31;5097636;28;20450;-78
2021/06/03 09:13:37;;;;;;;10.73;4.78;;;;;;;22.45;52.67;101035.09;5097310;28;20141;-78
2021/06/03 09:16:09;;;;;;;12.57;5.53;;;;;;;22.68;52.96;101046.91;5115548;28;20110;-78
2021/06/03 09:18:41;;;;;;;8.98;3.45;;;;;;;22.15;53.24;101040.38;5115900;28;20088;-78
2021/06/03 09:21:11;;;;;;;11.13;3.67;;;;;;;22.33;54.08;101035.81;5097443;28;20123;-78
2021/06/03 09:23:38;;;;;;;6.30;3.03;;;;;;;21.96;55.11;101040.59;5116557;28;20024;-78
2021/06/03 09:26:12;;;;;;;8.60;3.47;;;;;;;22.26;54.42;101042.41;5114832;27;20043;-78
2021/06/03 09:28:38;;;;;;;;;;;;;;;22.15;54.90;101050.94;5140307;27;20016;-78
2021/06/03 09:31:09;;;;;;;6.82;3.97;;;;;;;21.95;55.59;101059.16;5097865;28;19907;-78
2021/06/03 09:33:55;;;;;;;12.00;4.55;;;;;;;22.08;54.10;101064.63;5097239;28;20072;-78
2021/06/03 09:36:28;;;;;;;11.32;5.20;;;;;;;21.96;53.48;101068.81;5116033;28;20073;-78
2021/06/03 09:39:04;;;;;;;17.00;5.45;;;;;;;21.98;54.72;101074.84;5098995;28;20020;-78
2021/06/03 09:41:31;;;;;;;14.68;5.85;;;;;;;21.76;54.47;101077.88;5116359;28;20027;-78
2021/06/03 09:44:02;;;;;;;12.68;5.22;;;;;;;21.52;55.52;101077.44;5098526;28;20030;-78
2021/06/03 09:46:37;;;;;;;19.88;6.35;;;;;;;21.51;54.16;101087.16;5098215;28;20020;-79
2021/06/03 09:49:04;;;;;;;9.65;4.82;;;;;;;21.37;53.95;101085.28;5098086;28;20031;-78
2021/06/03 09:51:34;;;;;;;9.57;3.70;;;;;;;21.43;54.30;101083.22;5114657;28;20094;-77
2021/06/03 09:54:04;;;;;;;7.50;4.00;;;;;;;21.59;54.64;101089.38;5114698;28;20044;-77
2021/06/03 09:56:38;;;;;;;8.98;4.18;;;;;;;21.45;53.59;101099.84;5096505;28;20031;-78
2021/06/03 09:59:06;;;;;;;6.32;3.10;;;;;;;21.53;53.30;101097.66;5115161;28;20038;-78
2021/06/03 10:01:49;;;;;;;11.13;3.22;;;;;;;21.73;54.31;101102.66;5095526;28;20024;-77
2021/06/03 10:04:24;;;;;;;27.25;12.25;;;;;;;21.43;54.55;101105.22;5114753;28;20177;-77
2021/06/03 10:06:57;;;;;;;48.85;25.83;;;;;;;21.47;56.59;101097.97;5114632;28;20495;-78
2021/06/03 10:09:42;;;;;;;143.85;94.30;;;;;;;21.44;53.62;101108.72;5114620;28;20027;-77
2021/06/03 10:12:08;;;;;;;;;;;;;;;21.42;53.15;101115.84;5115017;28;20483;-77
2021/06/03 10:14:34;;;;;;;16.65;12.77;;;;;;;21.42;52.46;101107.94;5114543;28;19914;-77
2021/06/03 10:17:24;;;;;;;17.95;8.95;;;;;;;21.34;53.28;101114.47;5096117;28;20023;-77
2021/06/03 10:19:52;;;;;;;10.02;4.47;;;;;;;21.53;53.16;101110.84;5114245;28;20031;-77
2021/06/03 10:22:24;;;;;;;18.02;11.63;;;;;;;21.26;54.95;101115.81;5096140;28;20069;-78
2021/06/03 10:24:51;;;;;;;9.80;5.25;;;;;;;21.30;54.98;101119.97;5114282;28;20102;-77
2021/06/03 10:27:18;;;;;;;7.72;4.25;;;;;;;21.19;53.45;101115.28;5114146;28;20031;-78
2021/06/03 10:29:44;;;;;;;9.25;3.42;;;;;;;21.18;53.98;101110.06;5114090;28;20368;-77
2021/06/03 10:32:10;;;;;;;10.93;3.80;;;;;;;21.37;53.46;101111.69;5113935;28;20030;-77
2021/06/03 10:34:36;;;;;;;11.93;6.00;;;;;;;21.30;54.36;101115.53;5114212;28;20059;-77
2021/06/03 10:37:02;;;;;;;8.55;4.63;;;;;;;21.30;54.57;101115.53;5114028;28;20475;-77
2021/06/03 10:39:28;;;;;;;13.02;4.28;;;;;;;21.30;54.20;101109.41;5113735;28;20111;-77
2021/06/03 10:41:54;;;;;;;10.85;3.95;;;;;;;21.30;54.30;101118.19;5113890;28;20023;-77
2021/06/03 10:44:19;;;;;;;8.20;3.47;;;;;;;21.34;55.08;101114.47;5113829;28;20035;-77
2021/06/03 10:46:45;;;;;;;8.32;3.15;;;;;;;21.36;54.46;101119.66;5113961;28;20035;-77
2021/06/03 10:49:12;;;;;;;9.00;3.90;;;;;;;21.35;55.97;101129.38;5113574;28;20031;-77
2021/06/03 10:51:39;;;;;;;10.02;4.50;;;;;;;21.22;56.08;101123.03;5095359;28;20019;-77
2021/06/03 10:54:05;;;;;;;11.70;3.83;;;;;;;21.23;55.86;101122.09;5113582;28;20058;-77
2021/06/03 10:56:31;;;;;;;7.50;3.78;;;;;;;21.17;56.95;101124.22;5113595;28;20024;-77
2021/06/03 10:58:56;;;;;;;11.20;3.83;;;;;;;21.05;56.81;101130.97;5095343;28;20030;-77
2021/06/03 11:01:23;;;;;;;7.00;3.67;;;;;;;21.10;57.34;101132.44;5113537;28;20020;-77
2021/06/03 11:04:10;;;;;;;9.45;3.35;;;;;;;20.95;57.79;101119.22;5113441;28;20027;-77
2021/06/03 11:06:43;;;;;;;7.45;3.55;;;;;;;20.95;58.21;101125.34;5113769;28;20019;-77
2021/06/03 11:09:08;;;;;;;7.20;3.50;;;;;;;20.96;58.11;101124.41;5113470;28;20027;-77
2021/06/03 11:11:39;;;;;;;10.82;3.85;;;;;;;20.92;58.15;101120.22;5094992;28;20030;-77
2021/06/03 11:14:13;;;;;;;7.85;3.05;;;;;;;20.85;57.61;101122.34;5094720;28;20073;-77
2021/06/03 11:16:39;;;;;;;8.07;3.33;;;;;;;20.98;57.98;101126.97;5113328;28;20023;-77
2021/06/03 11:19:09;;;;;;;9.93;3.67;;;;;;;20.95;58.18;101129.78;5095054;28;20035;-77
2021/06/03 11:21:37;;;;;;;7.00;3.65;;;;;;;21.00;58.47;101125.97;5113241;28;20023;-77
2021/06/03 11:24:08;;;;;;;7.68;3.58;;;;;;;21.11;59.06;101135.94;5113152;28;20020;-77
2021/06/03 11:26:43;;;;;;;10.70;4.07;;;;;;;21.15;59.05;101134.81;5113332;28;20035;-78
2021/06/03 11:29:29;;;;;;;7.63;3.55;;;;;;;21.17;58.13;101135.59;5113174;28;20031;-77
2021/06/03 11:32:00;;;;;;;19.20;4.13;;;;;;;21.22;59.59;101138.88;5113497;28;20035;-78